createdAt,value
2023-04-03T00:00:40.979Z,92.03
2023-04-03T00:03:07.834Z,92.43
2023-04-03T00:05:34.593Z,92.50
2023-04-03T00:08:02.859Z,96.05
2023-04-03T00:10:29.630Z,92.03
2023-04-03T00:12:56.235Z,95.28
2023-04-03T00:15:22.864Z,97.32
2023-04-03T00:17:49.503Z,93.43
2023-04-03T00:20:16.346Z,92.80
2023-04-03T00:22:42.948Z,92.03
2023-04-03T00:25:09.976Z,93.28
2023-04-03T00:27:40.326Z,91.85
2023-04-03T00:30:09.855Z,93.53
2023-04-03T00:32:36.501Z,92.07
2023-04-03T00:35:03.356Z,93.88
2023-04-03T00:37:30.512Z,91.85
2023-04-03T00:39:57.185Z,92.03
2023-04-03T00:42:23.965Z,91.32
2023-04-03T00:44:50.732Z,93.95
2023-04-03T00:47:18.976Z,92.40
2023-04-03T00:49:46.497Z,92.53
2023-04-03T00:52:17.380Z,91.25
2023-04-03T00:54:46.807Z,91.70
2023-04-03T00:57:14.528Z,96.95
2023-04-03T00:59:45.882Z,99.15
2023-04-03T01:02:12.529Z,96.65
2023-04-03T01:04:42.032Z,91.68
2023-04-03T01:07:13.422Z,92.18
2023-04-03T01:09:41.196Z,92.13
2023-04-03T01:12:35.733Z,93.15
2023-04-03T01:15:07.458Z,92.72
2023-04-03T01:17:37.496Z,92.13
2023-04-03T01:20:23.717Z,92.63
2023-04-03T01:23:12.127Z,92.32
2023-04-03T01:25:58.064Z,92.07
2023-04-03T01:28:30.629Z,91.43
2023-04-03T01:31:22.197Z,92.20
2023-04-03T01:33:49.705Z,97.75
2023-04-03T01:36:22.878Z,91.68
2023-04-03T01:38:49.865Z,98.63
2023-04-03T01:41:16.967Z,92.30
2023-04-03T01:43:44.010Z,93.28
2023-04-03T01:46:11.024Z,92.15
2023-04-03T01:48:37.855Z,93.20
2023-04-03T01:51:04.683Z,92.15
2023-04-03T01:53:31.329Z,93.65
2023-04-03T01:55:57.991Z,94.88
2023-04-03T01:58:24.698Z,92.78
2023-04-03T02:00:52.787Z,92.43
2023-04-03T02:03:19.921Z,94.00
2023-04-03T02:05:46.563Z,93.88
2023-04-03T02:08:13.920Z,93.00
2023-04-03T02:10:40.648Z,92.75
2023-04-03T02:13:07.254Z,91.70
2023-04-03T02:15:33.923Z,92.03
2023-04-03T02:18:00.588Z,91.78
2023-04-03T02:20:27.326Z,94.57
2023-04-03T02:22:53.919Z,93.88
2023-04-03T02:25:21.302Z,93.18
2023-04-03T02:27:47.961Z,91.97
2023-04-03T02:30:15.643Z,94.43
2023-04-03T02:32:43.322Z,92.15
2023-04-03T02:35:11.402Z,92.20
2023-04-03T02:37:38.599Z,94.90
2023-04-03T02:40:06.081Z,93.45
2023-04-03T02:42:33.187Z,93.25
2023-04-03T02:45:01.401Z,93.15
2023-04-03T02:47:28.775Z,93.28
2023-04-03T02:49:55.523Z,93.03
2023-04-03T02:52:22.417Z,92.45
2023-04-03T02:54:49.037Z,92.80
2023-04-03T02:57:16.093Z,92.53
2023-04-03T02:59:42.880Z,92.72
2023-04-03T03:02:10.095Z,91.78
2023-04-03T03:04:37.093Z,92.53
2023-04-03T03:07:04.545Z,94.68
2023-04-03T03:09:31.236Z,91.65
2023-04-03T03:11:58.372Z,92.70
2023-04-03T03:14:25.153Z,94.85
2023-04-03T03:16:52.282Z,91.95
2023-04-03T03:19:18.919Z,94.63
2023-04-03T03:21:45.732Z,92.75
2023-04-03T03:24:12.996Z,96.78
2023-04-03T03:26:39.685Z,92.85
2023-04-03T03:29:06.370Z,91.95
2023-04-03T03:31:33.053Z,94.30
2023-04-03T03:33:59.756Z,93.47
2023-04-03T03:36:26.468Z,94.70
2023-04-03T03:38:53.299Z,91.93
2023-04-03T03:41:19.940Z,93.15
2023-04-03T03:43:46.585Z,95.35
2023-04-03T03:46:13.266Z,91.53
2023-04-03T03:48:39.925Z,90.65
2023-04-03T03:51:07.279Z,92.40
2023-04-03T03:53:33.997Z,92.55
2023-04-03T03:56:01.054Z,93.18
2023-04-03T03:58:27.643Z,91.85
2023-04-03T04:00:54.315Z,99.20
2023-04-03T04:03:22.011Z,92.32
2023-04-03T04:05:48.760Z,92.55
2023-04-03T04:08:15.786Z,95.50
2023-04-03T04:10:42.382Z,94.68
2023-04-03T04:13:09.149Z,98.65
2023-04-03T04:15:36.219Z,91.22
2023-04-03T04:18:03.311Z,91.45
2023-04-03T04:20:29.959Z,92.10
2023-04-03T04:22:56.650Z,91.68
2023-04-03T04:25:23.242Z,92.75
2023-04-03T04:27:49.908Z,92.53
2023-04-03T04:30:16.664Z,94.40
2023-04-03T04:32:43.349Z,91.80
2023-04-03T04:35:10.665Z,95.13
2023-04-03T04:37:37.404Z,94.30
2023-04-03T04:40:04.267Z,93.03
2023-04-03T04:42:30.847Z,93.78
2023-04-03T04:44:57.452Z,96.03
2023-04-03T04:47:24.101Z,93.20
2023-04-03T04:49:51.089Z,96.22
2023-04-03T04:52:17.682Z,95.47
2023-04-03T04:54:45.953Z,95.35
2023-04-03T04:57:12.628Z,94.25
2023-04-03T04:59:39.290Z,93.32
2023-04-03T05:02:06.020Z,100.13
2023-04-03T05:04:32.864Z,91.95
2023-04-03T05:07:00.341Z,92.40
2023-04-03T05:09:27.065Z,94.18
2023-04-03T05:11:53.708Z,94.68
2023-04-03T05:14:20.540Z,93.65
2023-04-03T05:16:47.536Z,94.10
2023-04-03T05:19:14.380Z,93.80
2023-04-03T05:21:40.996Z,93.22
2023-04-03T05:24:10.155Z,95.80
2023-04-03T05:26:36.767Z,91.93
2023-04-03T05:29:03.561Z,92.90
2023-04-03T05:31:30.717Z,92.63
2023-04-03T05:33:57.787Z,98.05
2023-04-03T05:36:24.425Z,92.63
2023-04-03T05:38:51.094Z,95.68
2023-04-03T05:41:19.771Z,104.13
2023-04-03T05:43:46.384Z,92.88
2023-04-03T05:46:14.509Z,95.90
2023-04-03T05:48:41.242Z,94.80
2023-04-03T05:51:08.750Z,96.30
2023-04-03T05:53:40.189Z,96.18
2023-04-03T05:56:06.983Z,93.93
2023-04-03T05:58:33.709Z,93.57
2023-04-03T06:01:00.684Z,93.82
2023-04-03T06:03:27.622Z,93.22
2023-04-03T06:05:54.332Z,92.05
2023-04-03T06:08:21.007Z,93.22
2023-04-03T06:10:47.739Z,92.55
2023-04-03T06:13:14.715Z,94.03
2023-04-03T06:15:41.377Z,94.35
2023-04-03T06:18:08.211Z,92.80
2023-04-03T06:20:34.938Z,93.55
2023-04-03T06:23:01.620Z,95.85
2023-04-03T06:25:28.626Z,94.53
2023-04-03T06:27:56.542Z,91.63
2023-04-03T06:30:23.223Z,96.65
2023-04-03T06:32:49.996Z,91.20
2023-04-03T06:35:16.939Z,93.68
2023-04-03T06:37:43.597Z,92.55
2023-04-03T06:40:22.651Z,92.40
2023-04-03T06:42:49.285Z,91.40
2023-04-03T06:45:16.316Z,93.40
2023-04-03T06:47:42.990Z,92.43
2023-04-03T06:50:12.603Z,95.85
2023-04-03T06:52:41.017Z,94.72
2023-04-03T06:55:08.354Z,98.38
2023-04-03T06:57:35.049Z,92.85
2023-04-03T07:00:01.852Z,91.80
2023-04-03T07:02:28.480Z,90.35
2023-04-03T07:04:55.962Z,92.13
2023-04-03T07:07:22.940Z,89.63
2023-04-03T07:09:50.285Z,91.78
2023-04-03T07:12:17.612Z,90.90
2023-04-03T07:14:44.750Z,91.95
2023-04-03T07:17:11.395Z,93.82
2023-04-03T07:19:38.025Z,90.65
2023-04-03T07:22:04.657Z,94.97
2023-04-03T07:24:31.278Z,92.32
2023-04-03T07:26:58.128Z,90.72
2023-04-03T07:29:24.857Z,89.88
2023-04-03T07:31:51.533Z,90.40
2023-04-03T07:34:18.259Z,86.85
2023-04-03T07:36:44.997Z,89.55
2023-04-03T07:39:12.096Z,91.00
2023-04-03T07:41:39.222Z,91.68
2023-04-03T07:44:06.474Z,89.53
2023-04-03T07:46:33.526Z,87.72
2023-04-03T07:49:00.212Z,86.55
2023-04-03T07:51:27.749Z,89.60
2023-04-03T07:53:55.037Z,89.35
2023-04-03T07:56:21.783Z,87.97
2023-04-03T07:58:48.413Z,87.28
2023-04-03T08:01:15.180Z,88.03
2023-04-03T08:03:41.957Z,87.35
2023-04-03T08:06:15.577Z,89.07
2023-04-03T08:08:43.413Z,89.20
2023-04-03T08:11:11.520Z,89.85
2023-04-03T08:13:38.345Z,85.50
2023-04-03T08:16:13.755Z,85.80
2023-04-03T08:18:41.063Z,84.60
2023-04-03T08:21:09.694Z,85.03
2023-04-03T08:23:36.509Z,83.80
2023-04-03T08:26:11.296Z,85.93
2023-04-03T08:28:38.236Z,84.22
2023-04-03T08:31:14.660Z,84.07
2023-04-03T08:33:41.428Z,87.10
2023-04-03T08:36:16.632Z,85.78
2023-04-03T08:38:43.291Z,83.97
2023-04-03T08:41:31.827Z,81.78
2023-04-03T08:44:08.814Z,87.22
2023-04-03T08:47:03.212Z,84.10
2023-04-03T08:49:52.008Z,84.53
2023-04-03T08:52:24.869Z,86.35
2023-04-03T08:54:58.192Z,85.00
2023-04-03T08:57:39.810Z,83.07
2023-04-03T09:00:14.828Z,83.88
2023-04-03T09:02:47.245Z,83.47
2023-04-03T09:05:30.021Z,86.18
2023-04-03T09:08:05.300Z,85.82
2023-04-03T09:10:35.699Z,86.75
2023-04-03T09:13:26.241Z,85.35
2023-04-03T09:15:54.944Z,82.72
2023-04-03T09:18:29.547Z,83.63
2023-04-03T09:21:05.916Z,84.40
2023-04-03T09:23:46.472Z,86.53
2023-04-03T09:26:18.955Z,85.07
2023-04-03T09:28:50.072Z,85.07
2023-04-03T09:31:24.701Z,84.35
2023-04-03T09:33:56.202Z,85.18
2023-04-03T09:36:42.702Z,86.95
2023-04-03T09:39:13.979Z,85.97
2023-04-03T09:41:40.917Z,85.65
2023-04-03T09:44:28.952Z,83.93
2023-04-03T09:46:55.861Z,85.18
2023-04-03T09:49:22.860Z,85.32
2023-04-03T09:51:50.124Z,85.97
2023-04-03T09:54:39.414Z,87.97
2023-04-03T09:57:15.663Z,87.32
2023-04-03T09:59:46.911Z,86.95
2023-04-03T10:02:22.572Z,88.90
2023-04-03T10:04:58.755Z,87.22
2023-04-03T10:07:40.256Z,89.20
2023-04-03T10:10:21.044Z,91.32
2023-04-03T10:12:47.978Z,91.45
2023-04-03T10:15:19.554Z,89.55
2023-04-03T10:17:50.682Z,89.50
2023-04-03T10:20:27.256Z,90.40
2023-04-03T10:23:15.077Z,88.88
2023-04-03T10:26:01.966Z,91.82
2023-04-03T10:29:25.756Z,90.40
2023-04-03T10:32:08.838Z,87.90
2023-04-03T10:34:42.324Z,89.68
2023-04-03T10:37:50.776Z,89.80
2023-04-03T10:40:56.001Z,89.47
2023-04-03T10:43:33.046Z,86.82
2023-04-03T10:46:22.009Z,92.47
2023-04-03T10:48:51.482Z,90.75
2023-04-03T10:51:42.738Z,87.28
2023-04-03T10:54:19.175Z,86.43
2023-04-03T10:57:12.597Z,88.07
2023-04-03T10:59:46.225Z,88.32
2023-04-03T11:02:32.869Z,89.82
2023-04-03T11:05:16.373Z,87.43
2023-04-03T11:07:52.533Z,87.07
2023-04-03T11:10:41.876Z,94.45
2023-04-03T11:13:22.157Z,90.85
2023-04-03T11:15:49.417Z,90.20
2023-04-03T11:18:18.193Z,89.05
2023-04-03T11:21:02.057Z,88.82
2023-04-03T11:23:48.235Z,88.35
2023-04-03T11:26:19.785Z,89.00
2023-04-03T11:28:47.207Z,90.22
2023-04-03T11:31:39.624Z,88.35
2023-04-03T11:34:24.909Z,89.63
2023-04-03T11:36:56.194Z,91.60
2023-04-03T11:39:39.438Z,87.53
2023-04-03T11:42:15.518Z,86.75
2023-04-03T11:44:42.362Z,87.70
2023-04-03T11:47:12.641Z,88.43
2023-04-03T11:49:54.305Z,94.75
2023-04-03T11:52:43.788Z,89.05
2023-04-03T11:55:31.420Z,87.75
2023-04-03T11:58:03.901Z,87.78
2023-04-03T12:00:48.631Z,88.88
2023-04-03T12:03:30.802Z,89.50
2023-04-03T12:05:58.879Z,88.15
2023-04-03T12:08:48.380Z,88.85
2023-04-03T12:11:24.008Z,88.55
2023-04-03T12:13:53.297Z,88.85
2023-04-03T12:16:25.751Z,88.80
2023-04-03T12:18:53.122Z,90.85
2023-04-03T12:21:52.998Z,88.95
2023-04-03T12:24:22.800Z,89.25
2023-04-03T12:26:59.177Z,89.72
2023-04-03T12:29:34.746Z,89.60
2023-04-03T12:32:14.505Z,87.80
2023-04-03T12:35:22.459Z,87.63
2023-04-03T12:38:28.172Z,87.28
2023-04-03T12:41:31.759Z,87.13
2023-04-03T12:44:27.894Z,86.97
2023-04-03T12:46:54.901Z,88.32
2023-04-03T12:49:31.106Z,89.15
2023-04-03T12:51:57.923Z,90.45
2023-04-03T12:54:36.402Z,89.57
2023-04-03T12:57:20.955Z,89.18
2023-04-03T12:59:48.626Z,88.32
2023-04-03T13:02:22.582Z,88.90
2023-04-03T13:04:50.644Z,88.88
2023-04-03T13:07:39.624Z,89.72
2023-04-03T13:10:09.084Z,86.38
2023-04-03T13:12:47.213Z,89.68
2023-04-03T13:15:18.852Z,87.32
2023-04-03T13:17:46.339Z,88.43
2023-04-03T13:20:19.449Z,97.97
2023-04-03T13:22:58.021Z,87.78
2023-04-03T13:25:27.134Z,86.47
2023-04-03T13:28:06.234Z,87.90
2023-04-03T13:30:41.942Z,89.10
2023-04-03T13:33:26.388Z,88.85
2023-04-03T13:36:05.183Z,89.57
2023-04-03T13:41:35.336Z,87.70
2023-04-03T13:44:24.061Z,87.47
2023-04-03T13:47:12.316Z,88.32
2023-04-03T13:49:44.850Z,86.97
2023-04-03T13:52:36.525Z,89.20
2023-04-03T13:55:25.841Z,86.90
2023-04-03T13:58:22.922Z,90.40
2023-04-03T14:00:56.426Z,89.28
2023-04-03T14:03:44.765Z,87.18
2023-04-03T14:06:16.419Z,87.82
2023-04-03T14:08:44.048Z,88.50
2023-04-03T14:11:29.817Z,88.35
2023-04-03T14:14:01.770Z,88.28
2023-04-03T14:16:31.978Z,88.25
2023-04-03T14:18:59.053Z,88.60
2023-04-03T14:21:26.109Z,88.32
2023-04-03T14:23:52.825Z,89.20
2023-04-03T14:26:23.420Z,88.78
2023-04-03T14:28:53.141Z,88.63
2023-04-03T14:31:21.623Z,89.40
2023-04-03T14:33:48.811Z,88.32
2023-04-03T14:36:28.229Z,91.07
2023-04-03T14:38:55.782Z,88.55
2023-04-03T14:41:25.288Z,89.88
2023-04-03T14:43:52.588Z,89.95
2023-04-03T14:46:38.685Z,88.75
2023-04-03T14:49:21.945Z,89.38
2023-04-03T14:51:49.014Z,89.75
2023-04-03T14:54:20.353Z,89.15
2023-04-03T14:56:48.878Z,91.15
2023-04-03T14:59:16.380Z,90.90
2023-04-03T15:01:43.095Z,89.18
2023-04-03T15:04:15.544Z,91.15
2023-04-03T15:06:43.233Z,88.97
2023-04-03T15:09:26.510Z,88.70
2023-04-03T15:11:55.392Z,91.25
2023-04-03T15:14:35.828Z,91.32
2023-04-03T15:17:06.219Z,88.65
2023-04-03T15:19:40.248Z,88.63
2023-04-03T15:22:07.854Z,89.85
2023-04-03T15:24:34.532Z,89.75
2023-04-03T15:27:02.287Z,89.95
2023-04-03T15:29:29.056Z,91.97
2023-04-03T15:31:55.928Z,88.80
2023-04-03T15:34:23.186Z,90.20
2023-04-03T15:36:53.525Z,89.22
2023-04-03T15:39:21.497Z,91.40
2023-04-03T15:41:48.460Z,88.45
2023-04-03T15:44:18.359Z,89.18
2023-04-03T15:46:46.970Z,88.60
2023-04-03T15:49:14.209Z,93.60
2023-04-03T15:51:41.071Z,90.47
2023-04-03T15:54:07.858Z,91.45
2023-04-03T15:56:34.495Z,92.90
2023-04-03T15:59:01.192Z,90.68
2023-04-03T16:01:28.218Z,89.75
2023-04-03T16:03:55.249Z,88.85
2023-04-03T16:06:21.892Z,90.03
2023-04-03T16:08:50.072Z,90.97
2023-04-03T16:11:16.724Z,93.43
2023-04-03T16:13:44.041Z,91.53
2023-04-03T16:16:11.052Z,88.60
2023-04-03T16:18:37.956Z,90.03
2023-04-03T16:21:06.993Z,89.95
2023-04-03T16:23:33.625Z,91.00
2023-04-03T16:26:00.399Z,90.35
2023-04-03T16:28:27.108Z,93.00
2023-04-03T16:30:53.867Z,92.18
2023-04-03T16:33:22.457Z,90.13
2023-04-03T16:35:51.271Z,90.85
2023-04-03T16:38:19.732Z,89.72
2023-04-03T16:40:46.905Z,92.72
2023-04-03T16:43:13.544Z,90.85
2023-04-03T16:45:40.799Z,90.82
2023-04-03T16:48:07.664Z,89.80
2023-04-03T16:50:34.573Z,92.45
2023-04-03T16:53:01.305Z,89.20
2023-04-03T16:55:27.932Z,93.20
2023-04-03T16:57:55.369Z,92.75
2023-04-03T17:00:22.365Z,90.85
2023-04-03T17:02:49.036Z,90.22
2023-04-03T17:05:15.862Z,90.72
2023-04-03T17:07:42.484Z,93.28
2023-04-03T17:10:09.707Z,92.80
2023-04-03T17:12:36.337Z,90.85
2023-04-03T17:15:03.725Z,90.45
2023-04-03T17:17:30.598Z,93.75
2023-04-03T17:19:57.423Z,89.72
2023-04-03T17:22:24.426Z,89.93
2023-04-03T17:24:51.184Z,89.72
2023-04-03T17:27:17.879Z,89.93
2023-04-03T17:29:44.511Z,91.70
2023-04-03T17:32:11.185Z,89.78
2023-04-03T17:34:37.928Z,89.75
2023-04-03T17:37:04.689Z,90.53
2023-04-03T17:39:31.581Z,91.03
2023-04-03T17:41:58.471Z,91.93
2023-04-03T17:44:25.286Z,90.43
2023-04-03T17:46:51.943Z,91.35
2023-04-03T17:49:20.490Z,90.57
2023-04-03T17:51:47.172Z,91.10
2023-04-03T17:54:13.965Z,91.68
2023-04-03T17:56:43.454Z,93.00
2023-04-03T17:59:10.604Z,90.72
2023-04-03T18:01:37.337Z,92.32
2023-04-03T18:04:05.353Z,91.55
2023-04-03T18:06:36.867Z,91.15
2023-04-03T18:09:07.159Z,91.65
2023-04-03T18:11:34.241Z,91.03
2023-04-03T18:14:03.541Z,92.45
2023-04-03T18:16:30.981Z,91.30
2023-04-03T18:19:06.952Z,92.03
2023-04-03T18:21:45.954Z,94.22
2023-04-03T18:24:14.836Z,91.13
2023-04-03T18:26:44.737Z,94.85
2023-04-03T18:29:12.245Z,92.70
2023-04-03T18:31:44.155Z,95.00
2023-04-03T18:34:11.965Z,90.22
2023-04-03T18:36:38.654Z,93.68
2023-04-03T18:39:05.312Z,94.50
2023-04-03T18:41:36.788Z,94.32
2023-04-03T18:44:06.792Z,95.45
2023-04-03T18:46:34.063Z,91.60
2023-04-03T18:49:00.886Z,91.80
2023-04-03T18:51:27.614Z,92.45
2023-04-03T18:53:54.445Z,93.15
2023-04-03T18:56:22.240Z,92.25
2023-04-03T18:58:48.952Z,93.22
2023-04-03T19:01:16.027Z,90.82
2023-04-03T19:03:43.033Z,90.97
2023-04-03T19:06:10.153Z,90.88
2023-04-03T19:08:37.072Z,94.30
2023-04-03T19:11:03.879Z,94.50
2023-04-03T19:13:30.647Z,91.53
2023-04-03T19:16:11.801Z,99.28
2023-04-03T19:18:38.789Z,92.53
2023-04-03T19:21:06.790Z,91.95
2023-04-03T19:23:34.608Z,92.63
2023-04-03T19:26:03.907Z,94.55
2023-04-03T19:28:31.246Z,92.57
2023-04-03T19:30:59.175Z,94.20
2023-04-03T19:33:26.809Z,92.68
2023-04-03T19:35:53.572Z,92.15
2023-04-03T19:38:20.315Z,97.65
2023-04-03T19:40:47.257Z,94.07
2023-04-03T19:43:16.207Z,92.43
2023-04-03T19:45:43.861Z,94.00
2023-04-03T19:48:11.180Z,91.90
2023-04-03T19:50:38.235Z,91.40
2023-04-03T19:53:05.530Z,92.72
2023-04-03T19:55:32.335Z,93.93
2023-04-03T19:58:00.008Z,91.93
2023-04-03T20:00:28.160Z,92.22
2023-04-03T20:02:55.032Z,92.20
2023-04-03T20:05:22.468Z,94.20
2023-04-03T20:07:49.267Z,91.57
2023-04-03T20:10:16.904Z,92.75
2023-04-03T20:12:44.734Z,92.68
2023-04-03T20:15:12.213Z,92.95
2023-04-03T20:17:39.753Z,93.38
2023-04-03T20:20:07.260Z,95.75
2023-04-03T20:22:36.196Z,93.95
2023-04-03T20:25:09.353Z,93.35
2023-04-03T20:27:36.492Z,94.63
2023-04-03T20:30:06.229Z,92.53
2023-04-03T20:32:33.714Z,97.80
2023-04-03T20:35:04.237Z,98.70
2023-04-03T20:37:31.947Z,96.05
2023-04-03T20:39:58.578Z,96.95
2023-04-03T20:42:26.076Z,91.85
2023-04-03T20:44:52.738Z,92.72
2023-04-03T20:47:19.568Z,93.63
2023-04-03T20:49:46.294Z,95.97
2023-04-03T20:52:13.351Z,94.13
2023-04-03T20:54:40.804Z,93.72
2023-04-03T20:57:07.445Z,93.63
2023-04-03T20:59:34.608Z,94.28
2023-04-03T21:02:01.399Z,96.38
2023-04-03T21:04:36.597Z,94.25
2023-04-03T21:07:41.351Z,93.72
2023-04-03T21:10:46.461Z,92.63
2023-04-03T21:13:50.709Z,94.82
2023-04-03T21:16:17.269Z,92.07
2023-04-03T21:19:13.634Z,93.10
2023-04-03T21:21:40.312Z,96.45
2023-04-03T21:24:09.865Z,93.88
2023-04-03T21:26:38.433Z,91.97
2023-04-03T21:29:08.728Z,94.47
2023-04-03T21:31:50.999Z,93.65
2023-04-03T21:34:19.698Z,94.38
2023-04-03T21:36:46.609Z,93.82
2023-04-03T21:39:13.233Z,94.18
2023-04-03T21:41:39.846Z,92.65
2023-04-03T21:44:07.072Z,94.00
2023-04-03T21:46:33.767Z,94.15
2023-04-03T21:49:01.342Z,93.35
2023-04-03T21:51:28.762Z,94.35
2023-04-03T21:53:56.281Z,97.57
2023-04-03T21:56:24.228Z,94.50
2023-04-03T21:58:54.184Z,97.75
2023-04-03T22:01:21.004Z,93.38
2023-04-03T22:03:47.860Z,95.28
2023-04-03T22:06:16.317Z,93.82
2023-04-03T22:08:43.605Z,92.40
2023-04-03T22:11:14.582Z,96.30
2023-04-03T22:13:42.457Z,93.63
2023-04-03T22:16:11.994Z,100.40
2023-04-03T22:18:39.122Z,93.00
2023-04-03T22:21:09.211Z,94.45
2023-04-03T22:23:36.108Z,98.30
2023-04-03T22:26:08.059Z,93.47
2023-04-03T22:28:39.277Z,94.50
2023-04-03T22:31:10.788Z,91.97
2023-04-03T22:33:38.240Z,97.25
2023-04-03T22:36:06.657Z,95.40
2023-04-03T22:38:33.934Z,93.63
2023-04-03T22:41:05.709Z,99.20
2023-04-03T22:43:33.675Z,95.00
2023-04-03T22:46:01.638Z,94.22
2023-04-03T22:48:28.419Z,93.95
2023-04-03T22:50:55.712Z,93.22
2023-04-03T22:53:22.636Z,95.40
2023-04-03T22:56:03.673Z,93.47
2023-04-03T22:58:30.664Z,94.53
2023-04-03T23:01:07.868Z,92.97
2023-04-03T23:03:36.446Z,92.38
2023-04-03T23:06:07.673Z,94.03
2023-04-03T23:08:35.605Z,94.38
2023-04-03T23:11:02.381Z,93.60
2023-04-03T23:13:29.687Z,93.75
2023-04-03T23:16:00.600Z,94.47
2023-04-03T23:18:31.453Z,94.90
2023-04-03T23:21:03.531Z,98.90
2023-04-03T23:23:30.905Z,93.88
2023-04-03T23:25:59.759Z,93.57
2023-04-03T23:28:27.245Z,92.82
2023-04-03T23:30:59.413Z,96.97
2023-04-03T23:33:26.181Z,99.00
2023-04-03T23:35:52.886Z,96.53
2023-04-03T23:38:19.544Z,93.22
2023-04-03T23:40:47.124Z,93.82
2023-04-03T23:43:13.831Z,93.50
2023-04-03T23:45:41.361Z,94.53
2023-04-03T23:48:08.902Z,94.55
2023-04-03T23:50:35.622Z,96.28
2023-04-03T23:53:02.275Z,93.50
2023-04-03T23:55:28.954Z,93.55
2023-04-03T23:57:56.071Z,95.20
